メインページ
METAR-TAF:

METAR-TAF

空港 :

静岡, 日本

静岡空港

緯度: 34-47-46N, 経度: 138-11-22E, 海抜: 132m

現時点の気象観測

当レポートは53分前の23:00(UTC)に作成
西/北西の風 6kt
気温 2°C
湿度 51%
気圧 1020 hPa
視程10km以上
高度2000ftの雲はほとんどない
千切れ雲あり

METAR: RJNS 182300Z 30006KT 9999 FEW020 BKN/// 02/M07 Q1020

時間: 08:53 (23:53 UTC)

予報

当レポートは47分前の23:06(UTC)に作成
予報は19日の 00時(UTC)から 20日の 06時(UTC)まで有効
西/南西の風 6kt
視程10km以上
高度3000ftの雲はほとんどない
19日の 04時(UTC)から 19日の 06時(UTC)まで徐々に
西の風 16kt
19日の 21時(UTC)から 20日の 00時(UTC)まで徐々に
北西の風 6kt
20日の 00時(UTC)から 20日の 03時(UTC)まで徐々に
南東の風 10kt

TAF: RJNS 182306Z 1900/2006 24006KT 9999 FEW030 BECMG 1904/1906 26016KT BECMG 1921/2000 32006KT BECMG 2000/2003 14010KT

4,000以上の空港の気象観測と天気予報(METAR報とTAF報)

利用可能な観測所は地図上に黄色い丸と赤い丸で示す。

丸の上にカーソルを重ねると観測所名を参照できる。

次にクリックすると気象観測と天気予報を参照できる。

マップの切り替え:黒色「×」印の緑ボタンをクリックして拡大、「-」印の緑ボタンをクリックして縮小、緑色の三角印をクリックして隣りの地図に切り替え


METAR-TAF: